Time;durP1;ratioP1;P1;durP2;ratioP2;P2;SDS_P1;SDS_P2;PMS_P1;PMS_P2;Temp;Humidity;BMP_temperature;BMP_pressure;BME280_temperature;BME280_humidity;BME280_pressure;Samples;Min_cycle;Max_cycle;Signal;HPM_P1;HPM_P2
2021/01/22 00:00:13;;;;;;;0.30;0.30;;;15.60;65.30;;;;;;4195168;28;20068;-40
2021/01/22 00:02:35;;;;;;;0.10;0.10;;;15.70;64.90;;;;;;4195442;28;20060;-41
2021/01/22 00:04:57;;;;;;;0.00;0.00;;;15.80;64.60;;;;;;4195799;28;20491;-41
2021/01/22 00:07:18;;;;;;;0.00;0.00;;;15.80;64.30;;;;;;4195408;28;20055;-41
2021/01/22 00:09:39;;;;;;;1.13;0.85;;;15.90;64.20;;;;;;4195664;28;20075;-41
2021/01/22 00:12:00;;;;;;;0.00;0.00;;;15.90;64.00;;;;;;4195510;28;20098;-41
2021/01/22 00:14:21;;;;;;;0.32;0.32;;;16.00;64.00;;;;;;4194720;28;20048;-40
2021/01/22 00:16:43;;;;;;;0.00;0.00;;;16.10;63.60;;;;;;4194941;28;20446;-40
2021/01/22 00:19:09;;;;;;;0.00;0.00;;;16.20;63.20;;;;;;4195025;28;20061;-40
2021/01/22 00:21:32;;;;;;;0.00;0.00;;;16.20;62.90;;;;;;4195015;28;20072;-41
2021/01/22 00:23:53;;;;;;;0.00;0.00;;;16.30;62.90;;;;;;4196316;28;20490;-40
2021/01/22 00:26:15;;;;;;;0.00;0.00;;;16.30;62.80;;;;;;4198166;28;20086;-40
2021/01/22 00:28:36;;;;;;;0.00;0.00;;;16.30;62.60;;;;;;4198011;28;20132;-41
2021/01/22 00:30:57;;;;;;;0.00;0.00;;;16.40;62.60;;;;;;4197784;28;20485;-41
2021/01/22 00:33:18;;;;;;;0.00;0.00;;;16.40;62.60;;;;;;4198454;28;20122;-42
2021/01/22 00:35:39;;;;;;;0.10;0.10;;;16.40;62.70;;;;;;4197874;28;20048;-42
2021/01/22 00:38:00;;;;;;;0.00;0.00;;;16.30;62.70;;;;;;4197031;28;20052;-41
2021/01/22 00:40:21;;;;;;;0.20;0.20;;;16.30;62.80;;;;;;4198193;28;20052;-40
2021/01/22 00:42:42;;;;;;;0.00;0.00;;;16.20;62.90;;;;;;4197699;28;20529;-41
2021/01/22 00:45:04;;;;;;;0.00;0.00;;;16.20;63.10;;;;;;4182633;28;20107;-40
2021/01/22 00:47:25;;;;;;;0.00;0.00;;;16.20;63.30;;;;;;4197876;28;20044;-41
2021/01/22 00:49:46;;;;;;;0.00;0.00;;;16.10;63.50;;;;;;4197721;28;20048;-41
2021/01/22 00:52:08;;;;;;;0.00;0.00;;;16.00;63.70;;;;;;4197552;28;20049;-43
2021/01/22 00:54:31;;;;;;;0.10;0.10;;;16.10;63.70;;;;;;4197866;28;20502;-42
2021/01/22 00:57:14;;;;;;;0.00;0.00;;;16.20;63.40;;;;;;4197576;28;20117;-41
2021/01/22 00:59:35;;;;;;;0.00;0.00;;;16.20;63.20;;;;;;4196392;28;20048;-42
2021/01/22 01:01:56;;;;;;;0.00;0.00;;;16.20;63.10;;;;;;4181264;28;20483;-42
2021/01/22 01:04:17;;;;;;;0.00;0.00;;;16.20;63.20;;;;;;4181174;28;20053;-43
2021/01/22 01:06:54;;;;;;;0.10;0.10;;;16.20;63.10;;;;;;4179703;28;20604;-41
2021/01/22 01:09:16;;;;;;;0.00;0.00;;;16.20;63.10;;;;;;4181020;28;20076;-45
2021/01/22 01:12:07;;;;;;;0.00;0.00;;;16.20;63.20;;;;;;4180771;28;20056;-46
2021/01/22 01:14:44;;;;;;;0.00;0.00;;;16.20;63.30;;;;;;4180563;28;20136;-41
2021/01/22 01:17:09;;;;;;;0.00;0.00;;;16.10;63.40;;;;;;4196587;28;20059;-41
2021/01/22 01:19:30;;;;;;;0.00;0.00;;;16.10;63.60;;;;;;4197372;28;20098;-40
2021/01/22 01:21:51;;;;;;;0.00;0.00;;;16.00;63.80;;;;;;4196984;28;20170;-41
2021/01/22 01:24:12;;;;;;;0.00;0.00;;;16.10;63.80;;;;;;4197413;28;20063;-40
2021/01/22 01:26:36;;;;;;;0.00;0.00;;;16.10;63.70;;;;;;4197376;28;20061;-41
2021/01/22 01:28:57;;;;;;;0.00;0.00;;;16.10;63.50;;;;;;4196847;28;20391;-42
2021/01/22 01:31:18;;;;;;;0.00;0.00;;;16.10;63.50;;;;;;4196934;28;20112;-41
2021/01/22 01:33:39;;;;;;;0.00;0.00;;;16.10;63.60;;;;;;4197322;28;20483;-42
2021/01/22 01:36:01;;;;;;;0.00;0.00;;;16.20;64.40;;;;;;4195997;28;20131;-45
2021/01/22 01:38:23;;;;;;;0.00;0.00;;;16.20;63.40;;;;;;4197055;28;20079;-41
2021/01/22 01:40:43;;;;;;;0.00;0.00;;;16.20;63.20;;;;;;4196741;28;20540;-42
2021/01/22 01:43:05;;;;;;;0.00;0.00;;;16.30;63.20;;;;;;4197043;28;20049;-41
2021/01/22 01:45:25;;;;;;;;;;;16.30;62.90;;;;;;4197195;28;20132;-41
2021/01/22 01:47:49;;;;;;;0.00;0.00;;;16.40;63.00;;;;;;4197105;28;19921;-41
2021/01/22 01:50:12;;;;;;;0.00;0.00;;;16.50;62.40;;;;;;4197026;28;20056;-40
2021/01/22 01:52:33;;;;;;;0.00;0.00;;;16.60;61.80;;;;;;4196861;28;20591;-41
2021/01/22 01:54:54;;;;;;;;;;;16.80;61.50;;;;;;4181012;28;20466;-41
2021/01/22 01:57:15;;;;;;;0.00;0.00;;;16.80;61.10;;;;;;4185482;28;19924;-41
2021/01/22 01:59:37;;;;;;;0.00;0.00;;;16.80;61.00;;;;;;4196645;28;20052;-41
2021/01/22 02:01:58;;;;;;;0.00;0.00;;;16.80;61.10;;;;;;4180211;28;20077;-41
2021/01/22 02:04:20;;;;;;;0.00;0.00;;;16.80;61.20;;;;;;4183233;28;20127;-42
2021/01/22 02:06:41;;;;;;;0.00;0.00;;;16.70;61.60;;;;;;4196729;28;20516;-41
2021/01/22 02:09:02;;;;;;;0.00;0.00;;;16.70;61.70;;;;;;4196430;28;20056;-40
2021/01/22 02:11:27;;;;;;;1.10;1.10;;;16.60;61.90;;;;;;4196569;28;20045;-43
2021/01/22 02:13:50;;;;;;;0.00;0.00;;;16.60;63.00;;;;;;4196915;28;20056;-41
2021/01/22 02:16:12;;;;;;;0.00;0.00;;;16.60;62.10;;;;;;4196351;28;20457;-43
2021/01/22 02:18:33;;;;;;;0.00;0.00;;;16.60;62.10;;;;;;4196703;28;20086;-40
2021/01/22 02:21:06;;;;;;;0.00;0.00;;;16.50;62.10;;;;;;4196409;28;20764;-42
2021/01/22 02:23:31;;;;;;;0.00;0.00;;;16.50;62.20;;;;;;4196775;28;20059;-41
2021/01/22 02:25:57;;;;;;;0.00;0.00;;;16.50;62.30;;;;;;4196210;28;20063;-42
2021/01/22 02:28:20;;;;;;;0.00;0.00;;;16.50;62.50;;;;;;4196144;28;20064;-41
2021/01/22 02:30:43;;;;;;;0.00;0.00;;;16.50;62.40;;;;;;4196143;28;20102;-40
2021/01/22 02:33:05;;;;;;;0.00;0.00;;;16.60;61.90;;;;;;4196440;28;20049;-40
2021/01/22 02:35:28;;;;;;;0.00;0.00;;;16.70;61.60;;;;;;4196175;28;20048;-40
2021/01/22 02:37:50;;;;;;;0.00;0.00;;;16.70;61.50;;;;;;4196254;28;20044;-41
2021/01/22 02:40:15;;;;;;;0.00;0.00;;;16.70;61.50;;;;;;4195845;28;20748;-41
2021/01/22 02:42:37;;;;;;;0.00;0.00;;;16.60;61.60;;;;;;4196076;28;20075;-41
2021/01/22 02:44:59;;;;;;;0.00;0.00;;;16.60;61.80;;;;;;4196039;28;20056;-40
2021/01/22 02:47:20;;;;;;;0.00;0.00;;;16.50;62.00;;;;;;4195627;28;20155;-41
2021/01/22 02:49:42;;;;;;;0.00;0.00;;;16.40;62.20;;;;;;4196211;28;20060;-41
2021/01/22 02:52:03;;;;;;;0.28;0.28;;;16.40;62.50;;;;;;4195917;28;20063;-41
2021/01/22 02:54:24;;;;;;;0.00;0.00;;;16.40;62.40;;;;;;4196014;28;20867;-40
2021/01/22 02:56:52;;;;;;;0.00;0.00;;;16.40;62.40;;;;;;4195378;28;20049;-40
2021/01/22 02:59:23;;;;;;;0.00;0.00;;;16.50;62.30;;;;;;4195350;28;20061;-40
2021/01/22 03:01:55;;;;;;;0.00;0.00;;;16.60;61.90;;;;;;4179144;28;20123;-40
2021/01/22 03:04:19;;;;;;;0.00;0.00;;;16.70;61.60;;;;;;4179417;28;20515;-40
2021/01/22 03:06:44;;;;;;;0.65;0.65;;;16.80;61.40;;;;;;4179464;28;20495;-40
2021/01/22 03:09:06;;;;;;;0.00;0.00;;;16.70;61.30;;;;;;4179080;28;20053;-41
2021/01/22 03:11:28;;;;;;;0.00;0.00;;;16.70;61.40;;;;;;4179507;28;20450;-40
2021/01/22 03:13:51;;;;;;;0.00;0.00;;;16.70;61.40;;;;;;4179470;28;20055;-40
2021/01/22 03:16:12;;;;;;;0.00;0.00;;;16.70;61.50;;;;;;4194304;28;20058;-41
2021/01/22 03:18:34;;;;;;;0.00;0.00;;;16.80;61.20;;;;;;4196125;28;20064;-40
2021/01/22 03:20:55;;;;;;;0.00;0.00;;;16.90;60.90;;;;;;4195697;28;20045;-41
2021/01/22 03:23:18;;;;;;;0.00;0.00;;;16.90;60.70;;;;;;4196166;28;20060;-40
2021/01/22 03:25:41;;;;;;;0.00;0.00;;;16.90;60.70;;;;;;4195863;28;20414;-41
2021/01/22 03:28:03;;;;;;;0.00;0.00;;;16.90;60.80;;;;;;4195546;28;20080;-41
2021/01/22 03:30:24;;;;;;;0.00;0.00;;;17.00;60.80;;;;;;4195450;28;20056;-40
2021/01/22 03:32:45;;;;;;;0.00;0.00;;;16.90;60.60;;;;;;4195865;28;20048;-40
2021/01/22 03:35:08;;;;;;;0.15;0.15;;;16.90;60.70;;;;;;4195518;28;20057;-41
2021/01/22 03:37:29;;;;;;;0.00;0.00;;;16.80;60.80;;;;;;4195480;28;20053;-40
2021/01/22 03:39:50;;;;;;;0.28;0.28;;;16.80;61.10;;;;;;4195413;28;20052;-41
2021/01/22 03:42:13;;;;;;;;;;;16.80;61.30;;;;;;4196351;28;20132;-42
2021/01/22 03:44:34;;;;;;;0.00;0.00;;;16.80;61.10;;;;;;4195220;28;19924;-40
2021/01/22 03:46:55;;;;;;;;;;;16.90;61.00;;;;;;4195736;28;20057;-40
2021/01/22 03:49:16;;;;;;;0.00;0.00;;;16.90;60.70;;;;;;4195347;28;19931;-41
2021/01/22 03:51:38;;;;;;;0.00;0.00;;;16.90;60.60;;;;;;4195200;28;20051;-40
2021/01/22 03:53:59;;;;;;;0.00;0.00;;;16.90;60.70;;;;;;4195220;28;20045;-41
2021/01/22 03:56:22;;;;;;;0.00;0.00;;;16.90;60.80;;;;;;4195623;28;20752;-40
2021/01/22 03:58:43;;;;;;;0.00;0.00;;;16.80;61.80;;;;;;4196429;28;20127;-40
2021/01/22 04:01:04;;;;;;;0.00;0.00;;;16.80;61.20;;;;;;4198841;28;20148;-40
2021/01/22 04:03:25;;;;;;;0.00;0.00;;;16.70;61.20;;;;;;4199001;28;20058;-40
2021/01/22 04:05:46;;;;;;;0.00;0.00;;;16.70;61.50;;;;;;4198595;28;20048;-44
2021/01/22 04:08:07;;;;;;;0.00;0.00;;;16.70;61.50;;;;;;4198864;28;20053;-40
2021/01/22 04:10:28;;;;;;;0.00;0.00;;;16.80;61.30;;;;;;4198278;28;20060;-40
2021/01/22 04:12:51;;;;;;;0.00;0.00;;;16.80;62.10;;;;;;4198437;28;20049;-41
2021/01/22 04:15:13;;;;;;;0.00;0.00;;;16.80;61.10;;;;;;4198640;28;20412;-40
2021/01/22 04:17:34;;;;;;;0.00;0.00;;;16.70;61.20;;;;;;4198470;28;20052;-40
2021/01/22 04:19:55;;;;;;;0.00;0.00;;;16.80;62.10;;;;;;4198444;28;20059;-40
2021/01/22 04:22:16;;;;;;;0.00;0.00;;;16.90;60.90;;;;;;4198871;28;20057;-41
2021/01/22 04:24:38;;;;;;;0.00;0.00;;;16.90;60.50;;;;;;4198335;28;20125;-40
2021/01/22 04:26:58;;;;;;;0.00;0.00;;;17.00;60.40;;;;;;4198298;28;20060;-41
2021/01/22 04:29:19;;;;;;;0.38;0.38;;;17.00;60.30;;;;;;4197629;28;20139;-40
2021/01/22 04:31:43;;;;;;;0.00;0.00;;;16.90;60.40;;;;;;4198624;28;20075;-41
2021/01/22 04:34:03;;;;;;;0.00;0.00;;;17.00;60.50;;;;;;4197992;28;20123;-41
2021/01/22 04:36:24;;;;;;;0.00;0.00;;;16.90;60.40;;;;;;4198161;28;20053;-40
2021/01/22 04:38:45;;;;;;;0.00;0.00;;;16.90;60.40;;;;;;4198346;28;20072;-40
2021/01/22 04:41:07;;;;;;;0.00;0.00;;;16.80;60.60;;;;;;4182055;28;20055;-41
2021/01/22 04:43:28;;;;;;;0.00;0.00;;;16.80;60.90;;;;;;4186071;28;20055;-40
2021/01/22 04:45:49;;;;;;;0.00;0.00;;;16.80;60.70;;;;;;4198012;28;20052;-41
2021/01/22 04:48:11;;;;;;;0.00;0.00;;;16.90;60.30;;;;;;4197930;28;20130;-40
2021/01/22 04:50:34;;;;;;;0.20;0.20;;;17.00;60.00;;;;;;4198106;28;20540;-40
2021/01/22 04:52:57;;;;;;;0.00;0.00;;;17.10;59.80;;;;;;4197976;28;20056;-40
2021/01/22 04:55:19;;;;;;;0.00;0.00;;;17.10;59.70;;;;;;4197851;28;20495;-41
2021/01/22 04:57:43;;;;;;;0.00;0.00;;;17.10;59.70;;;;;;4197237;28;20079;-41
2021/01/22 05:00:05;;;;;;;0.00;0.00;;;17.20;59.60;;;;;;4197584;28;20395;-40
2021/01/22 05:02:29;;;;;;;0.00;0.00;;;17.10;59.50;;;;;;4198042;28;20457;-40
2021/01/22 05:04:50;;;;;;;0.00;0.00;;;17.10;59.70;;;;;;4197934;28;20052;-40
2021/01/22 05:07:14;;;;;;;0.00;0.00;;;17.10;59.90;;;;;;4197554;28;20052;-41
2021/01/22 05:09:35;;;;;;;0.00;0.00;;;17.00;59.80;;;;;;4197450;28;20422;-41
2021/01/22 05:11:56;;;;;;;0.00;0.00;;;17.00;59.80;;;;;;4196513;28;20150;-41
2021/01/22 05:14:18;;;;;;;0.00;0.00;;;17.00;59.90;;;;;;4197434;28;20053;-42
2021/01/22 05:16:39;;;;;;;0.00;0.00;;;16.90;60.20;;;;;;4197256;28;20056;-41
2021/01/22 05:19:19;;;;;;;0.00;0.00;;;16.90;60.10;;;;;;4197594;28;20110;-41
2021/01/22 05:21:40;;;;;;;5.22;0.63;;;17.00;60.80;;;;;;4197931;28;20129;-41
2021/01/22 05:24:15;;;;;;;0.00;0.00;;;17.10;59.70;;;;;;4197932;28;20055;-41
2021/01/22 05:26:36;;;;;;;0.10;0.10;;;17.10;59.60;;;;;;4197283;28;20131;-41
2021/01/22 05:28:59;;;;;;;0.00;0.00;;;17.10;59.50;;;;;;4197401;28;20080;-41
2021/01/22 05:31:30;;;;;;;0.00;0.00;;;17.20;59.40;;;;;;4197312;28;20056;-41
2021/01/22 05:33:55;;;;;;;0.00;0.00;;;17.20;59.20;;;;;;4197618;28;20055;-41
2021/01/22 05:36:24;;;;;;;0.00;0.00;;;17.30;59.10;;;;;;4196980;28;20151;-41
2021/01/22 05:38:45;;;;;;;0.00;0.00;;;17.40;58.90;;;;;;4197043;28;20037;-41
2021/01/22 05:41:07;;;;;;;0.00;0.00;;;17.50;58.60;;;;;;4197390;28;20506;-41
2021/01/22 05:43:36;;;;;;;0.00;0.00;;;17.50;58.50;;;;;;4197056;28;20413;-41
2021/01/22 05:45:57;;;;;;;0.00;0.00;;;17.50;58.50;;;;;;4197182;28;20044;-43
2021/01/22 05:48:19;;;;;;;0.00;0.00;;;17.60;58.40;;;;;;4197015;28;20056;-41
2021/01/22 05:50:49;;;;;;;0.00;0.00;;;17.60;58.20;;;;;;4196969;28;20056;-41
2021/01/22 05:53:12;;;;;;;0.00;0.00;;;17.60;58.10;;;;;;4196848;28;20125;-41
2021/01/22 05:55:33;;;;;;;0.00;0.00;;;17.60;58.20;;;;;;4196853;28;20465;-43
2021/01/22 05:57:53;;;;;;;0.00;0.00;;;17.60;58.30;;;;;;4196902;28;20056;-40
2021/01/22 06:00:16;;;;;;;0.00;0.00;;;17.50;58.10;;;;;;4196673;28;20079;-40
2021/01/22 06:02:37;;;;;;;0.00;0.00;;;17.60;58.20;;;;;;4196737;28;20052;-41
2021/01/22 06:05:10;;;;;;;0.00;0.00;;;17.50;58.30;;;;;;4197023;28;20087;-41
2021/01/22 06:07:31;;;;;;;0.00;0.00;;;17.50;58.50;;;;;;4180158;28;20060;-41
2021/01/22 06:09:52;;;;;;;0.00;0.00;;;17.50;58.40;;;;;;4180398;28;20118;-40
2021/01/22 06:12:13;;;;;;;0.10;0.10;;;17.50;58.20;;;;;;4180092;28;20419;-41
2021/01/22 06:14:35;;;;;;;0.00;0.00;;;17.50;58.90;;;;;;4194937;28;20425;-41
2021/01/22 06:16:57;;;;;;;0.00;0.00;;;17.50;58.20;;;;;;4196956;28;20052;-41
2021/01/22 06:19:21;;;;;;;0.00;0.00;;;17.40;58.40;;;;;;4196265;28;20070;-40
2021/01/22 06:21:50;;;;;;;0.00;0.00;;;17.40;58.50;;;;;;4195690;28;20530;-41
2021/01/22 06:24:11;;;;;;;0.00;0.00;;;17.50;58.40;;;;;;4196535;28;20060;-40
2021/01/22 06:26:36;;;;;;;0.00;0.00;;;17.60;58.20;;;;;;4196473;28;20098;-40
2021/01/22 06:29:01;;;;;;;0.00;0.00;;;17.60;58.00;;;;;;4196471;28;20127;-42
2021/01/22 06:31:22;;;;;;;0.00;0.00;;;17.70;57.80;;;;;;4196286;28;20052;-41
2021/01/22 06:33:46;;;;;;;0.00;0.00;;;17.70;57.60;;;;;;4196268;28;20122;-41
2021/01/22 06:36:09;;;;;;;0.00;0.00;;;17.70;57.60;;;;;;4196651;28;20131;-40
2021/01/22 06:38:32;;;;;;;0.00;0.00;;;17.70;57.80;;;;;;4195822;28;20052;-40
2021/01/22 06:40:52;;;;;;;0.00;0.00;;;17.70;57.70;;;;;;4196145;28;20489;-40
2021/01/22 06:43:14;;;;;;;0.00;0.00;;;17.70;57.60;;;;;;4195941;28;20052;-40
2021/01/22 06:45:35;;;;;;;0.00;0.00;;;17.60;57.70;;;;;;4196088;28;20063;-40
2021/01/22 06:47:57;;;;;;;0.00;0.00;;;17.60;58.00;;;;;;4196529;28;20052;-42
2021/01/22 06:50:21;;;;;;;0.00;0.00;;;17.40;58.30;;;;;;4196182;28;20579;-43
2021/01/22 06:52:42;;;;;;;0.00;0.00;;;17.40;58.60;;;;;;4196038;28;20577;-41
2021/01/22 06:55:08;;;;;;;16.55;1.38;;;17.40;59.00;;;;;;4195817;28;20048;-41
2021/01/22 06:57:30;;;;;;;0.00;0.00;;;17.40;58.60;;;;;;4195581;28;20056;-40
2021/01/22 06:59:51;;;;;;;0.00;0.00;;;17.50;58.40;;;;;;4196428;28;20406;-40
2021/01/22 07:02:36;;;;;;;0.00;0.00;;;17.40;58.10;;;;;;4184911;28;20048;-42
2021/01/22 07:05:01;;;;;;;0.00;0.00;;;17.40;58.00;;;;;;4195602;28;20044;-40
2021/01/22 07:07:46;;;;;;;0.45;0.45;;;17.50;57.80;;;;;;4192621;28;20048;-41
2021/01/22 07:10:09;;;;;;;0.00;0.00;;;17.40;57.60;;;;;;4192068;28;20513;-41
2021/01/22 07:12:40;;;;;;;0.00;0.00;;;17.30;57.60;;;;;;4196241;28;20049;-40
2021/01/22 07:15:01;;;;;;;0.10;0.10;;;17.40;57.50;;;;;;4179649;28;20071;-40
2021/01/22 07:17:27;;;;;;;0.00;0.00;;;17.40;57.30;;;;;;4195541;28;20079;-41
2021/01/22 07:19:54;;;;;;;0.00;0.00;;;17.40;57.20;;;;;;4196048;28;20053;-40
2021/01/22 07:22:21;;;;;;;0.10;0.10;;;17.30;57.30;;;;;;4179134;28;20049;-40
2021/01/22 07:24:45;;;;;;;1.20;1.17;;;17.20;57.40;;;;;;4188506;28;20055;-40
2021/01/22 07:27:10;;;;;;;0.00;0.00;;;17.20;57.50;;;;;;4195757;28;20109;-40
2021/01/22 07:29:31;;;;;;;0.00;0.00;;;17.40;56.90;;;;;;4196027;28;20134;-40
2021/01/22 07:31:55;;;;;;;0.00;0.00;;;17.60;56.30;;;;;;4195589;28;20052;-40
2021/01/22 07:34:45;;;;;;;0.17;0.17;;;17.60;56.10;;;;;;4194978;28;20048;-40
2021/01/22 07:37:07;;;;;;;0.10;0.10;;;17.60;56.20;;;;;;4195871;28;20055;-42
2021/01/22 07:39:28;;;;;;;0.00;0.00;;;17.40;56.40;;;;;;4195803;28;20053;-40
2021/01/22 07:41:50;;;;;;;0.00;0.00;;;17.30;56.70;;;;;;4195917;28;20048;-41
2021/01/22 07:44:12;;;;;;;0.00;0.00;;;17.30;56.70;;;;;;4194856;28;20052;-41
2021/01/22 07:46:44;;;;;;;0.00;0.00;;;17.30;56.70;;;;;;4195546;28;20052;-41
2021/01/22 07:49:07;;;;;;;0.00;0.00;;;17.20;56.70;;;;;;4195847;28;20464;-41
2021/01/22 07:51:32;;;;;;;0.10;0.10;;;17.10;56.90;;;;;;4195571;28;20845;-41
2021/01/22 07:53:56;;;;;;;0.00;0.00;;;17.00;57.10;;;;;;4178919;28;20072;-41
2021/01/22 07:56:17;;;;;;;0.00;0.00;;;16.90;57.30;;;;;;4180851;28;20057;-41
2021/01/22 07:58:38;;;;;;;0.00;0.00;;;17.00;57.20;;;;;;4195426;28;20299;-40
2021/01/22 08:01:01;;;;;;;0.00;0.00;;;17.00;57.10;;;;;;4187383;28;20098;-40
2021/01/22 08:03:44;;;;;;;0.00;0.00;;;17.00;57.10;;;;;;4195175;28;20067;-41
2021/01/22 08:06:05;;;;;;;1.30;1.20;;;16.90;57.10;;;;;;4195151;28;20060;-41
2021/01/22 08:08:27;;;;;;;0.10;0.10;;;16.90;57.00;;;;;;4194650;28;20049;-41
2021/01/22 08:10:48;;;;;;;0.10;0.10;;;16.90;57.10;;;;;;4195649;28;20071;-41
2021/01/22 08:13:09;;;;;;;0.00;0.00;;;16.80;57.30;;;;;;4195020;28;20052;-41
2021/01/22 08:15:30;;;;;;;0.00;0.00;;;16.80;57.50;;;;;;4194851;28;20052;-40
2021/01/22 08:17:52;;;;;;;1.08;0.98;;;16.70;57.50;;;;;;4193655;28;20053;-41
2021/01/22 08:20:14;;;;;;;0.00;0.00;;;16.90;57.40;;;;;;4194208;28;20742;-40
2021/01/22 08:22:35;;;;;;;0.52;0.52;;;17.10;56.90;;;;;;4194954;28;20059;-40
2021/01/22 08:24:56;;;;;;;0.15;0.15;;;17.30;56.40;;;;;;4195469;28;20099;-40
2021/01/22 08:27:20;;;;;;;3.10;0.75;;;17.30;56.10;;;;;;4194791;28;20055;-40
2021/01/22 08:29:43;;;;;;;0.00;0.00;;;17.30;56.10;;;;;;4195166;28;20056;-41
2021/01/22 08:32:05;;;;;;;0.00;0.00;;;17.20;56.20;;;;;;4195102;28;20059;-41
2021/01/22 08:34:29;;;;;;;0.00;0.00;;;17.10;56.40;;;;;;4178994;28;20570;-41
2021/01/22 08:36:51;;;;;;;0.03;0.03;;;17.00;56.60;;;;;;4178796;28;20158;-41
2021/01/22 08:39:12;;;;;;;0.00;0.00;;;16.90;56.80;;;;;;4186751;28;20048;-41
2021/01/22 08:41:34;;;;;;;0.82;0.75;;;16.80;57.00;;;;;;4194740;28;20048;-41
2021/01/22 08:43:57;;;;;;;0.00;0.00;;;16.80;57.30;;;;;;4178317;28;20418;-40
2021/01/22 08:46:21;;;;;;;0.00;0.00;;;16.70;57.50;;;;;;4188088;28;20447;-42
2021/01/22 08:48:44;;;;;;;0.00;0.00;;;16.60;57.70;;;;;;4198006;28;20240;-41
2021/01/22 08:51:07;;;;;;;0.10;0.10;;;16.60;57.70;;;;;;4197516;28;20621;-41
2021/01/22 08:53:28;;;;;;;0.00;0.00;;;16.60;57.70;;;;;;4197975;28;20044;-41
2021/01/22 08:55:49;;;;;;;0.00;0.00;;;16.50;57.80;;;;;;4197694;28;20041;-42
2021/01/22 08:58:12;;;;;;;0.10;0.10;;;16.50;57.90;;;;;;4193260;28;20127;-41
2021/01/22 09:00:33;;;;;;;0.00;0.00;;;16.50;58.00;;;;;;4196031;28;20146;-41
2021/01/22 09:02:56;;;;;;;0.10;0.10;;;16.50;58.10;;;;;;4193918;28;20477;-40
2021/01/22 09:05:17;;;;;;;0.00;0.00;;;16.40;58.20;;;;;;4196213;28;20052;-41
2021/01/22 09:07:39;;;;;;;17.98;1.27;;;16.40;58.40;;;;;;4197265;28;20129;-41
2021/01/22 09:10:03;;;;;;;0.00;0.00;;;16.40;58.40;;;;;;4197365;28;20055;-41
2021/01/22 09:12:26;;;;;;;0.10;0.10;;;16.50;58.00;;;;;;4197121;28;20130;-41
2021/01/22 09:15:01;;;;;;;0.77;0.77;;;16.70;57.70;;;;;;4181967;28;20049;-41
2021/01/22 09:17:28;;;;;;;0.00;0.00;;;16.70;57.40;;;;;;4197851;28;20117;-41
2021/01/22 09:19:58;;;;;;;0.05;0.05;;;16.70;57.50;;;;;;4197424;28;20140;-41
2021/01/22 09:22:22;;;;;;;0.10;0.10;;;16.60;57.50;;;;;;4197150;28;20102;-41
2021/01/22 09:24:44;;;;;;;0.30;0.30;;;16.60;57.70;;;;;;4186602;28;20114;-42
2021/01/22 09:27:05;;;;;;;0.00;0.00;;;16.60;57.60;;;;;;4195923;28;20045;-41
2021/01/22 09:29:26;;;;;;;;;;;16.70;57.50;;;;;;4197205;28;20052;-41
2021/01/22 09:31:47;;;;;;;0.00;0.00;;;16.60;57.50;;;;;;4197208;28;20049;-41
2021/01/22 09:34:08;;;;;;;0.00;0.00;;;16.60;57.50;;;;;;4197367;28;20052;-40
2021/01/22 09:36:29;;;;;;;0.03;0.03;;;16.60;57.60;;;;;;4197344;28;20052;-41
2021/01/22 09:38:50;;;;;;;0.03;0.03;;;16.70;57.40;;;;;;4197158;28;20052;-41
2021/01/22 09:41:12;;;;;;;0.30;0.30;;;16.70;57.30;;;;;;4197126;28;20056;-40
2021/01/22 09:43:32;;;;;;;0.00;0.00;;;16.70;57.30;;;;;;4195654;28;20052;-41
2021/01/22 09:45:56;;;;;;;0.10;0.10;;;16.70;57.40;;;;;;4196778;28;20052;-41
2021/01/22 09:48:18;;;;;;;0.00;0.00;;;16.70;57.50;;;;;;4196640;28;20049;-41
2021/01/22 09:50:42;;;;;;;0.00;0.00;;;16.80;57.30;;;;;;4196566;28;20059;-45
2021/01/22 09:53:04;;;;;;;;;;;16.90;57.20;;;;;;4197430;28;20075;-41
2021/01/22 09:55:41;;;;;;;0.00;0.00;;;16.80;57.20;;;;;;4196103;28;19920;-41
2021/01/22 09:58:03;;;;;;;0.20;0.20;;;16.80;57.30;;;;;;4193494;28;20053;-41
2021/01/22 10:00:25;;;;;;;0.00;0.00;;;16.80;57.20;;;;;;4195982;28;20439;-41
2021/01/22 10:02:45;;;;;;;0.00;0.00;;;16.90;57.10;;;;;;4197237;28;20060;-40
2021/01/22 10:05:07;;;;;;;;;;;16.90;57.00;;;;;;4196493;28;20052;-40
2021/01/22 10:07:31;;;;;;;1.20;1.05;;;16.90;57.00;;;;;;4195836;28;20030;-40
2021/01/22 10:09:52;;;;;;;0.00;0.00;;;16.90;57.20;;;;;;4180040;28;20052;-39
2021/01/22 10:12:13;;;;;;;0.00;0.00;;;16.80;57.20;;;;;;4180181;28;20126;-40
2021/01/22 10:14:35;;;;;;;0.00;0.00;;;16.90;57.00;;;;;;4196831;28;20458;-41
2021/01/22 10:16:55;;;;;;;0.05;0.05;;;16.90;56.90;;;;;;4196432;28;20075;-42
2021/01/22 10:19:16;;;;;;;0.50;0.50;;;16.90;56.90;;;;;;4196826;28;20113;-41
2021/01/22 10:21:38;;;;;;;1.25;0.85;;;16.80;57.10;;;;;;4196388;28;20502;-41
2021/01/22 10:23:59;;;;;;;0.00;0.00;;;16.80;57.30;;;;;;4196710;28;20056;-41
2021/01/22 10:26:22;;;;;;;0.00;0.00;;;16.70;57.40;;;;;;4196793;28;20487;-40
2021/01/22 10:28:43;;;;;;;0.10;0.10;;;16.80;57.20;;;;;;4196508;28;20060;-40
2021/01/22 10:31:05;;;;;;;;;;;16.90;56.90;;;;;;4189476;28;20045;-41
2021/01/22 10:33:26;;;;;;;0.15;0.15;;;16.90;56.80;;;;;;4196307;28;19928;-40
2021/01/22 10:35:47;;;;;;;0.00;0.00;;;16.90;57.60;;;;;;4196392;28;20052;-41
2021/01/22 10:38:08;;;;;;;0.47;0.47;;;16.80;57.00;;;;;;4196240;28;21132;-40
2021/01/22 10:40:29;;;;;;;0.05;0.05;;;16.90;57.00;;;;;;4196225;28;20063;-40
2021/01/22 10:42:50;;;;;;;0.90;0.90;;;17.00;56.70;;;;;;4196369;28;20056;-40
2021/01/22 10:45:13;;;;;;;0.08;0.08;;;17.10;56.50;;;;;;4196258;28;20056;-41
2021/01/22 10:47:35;;;;;;;0.10;0.10;;;17.20;56.50;;;;;;4196148;28;20082;-41
2021/01/22 10:49:56;;;;;;;0.82;0.80;;;17.10;56.50;;;;;;4195668;28;20049;-40
2021/01/22 10:52:17;;;;;;;0.00;0.00;;;17.10;56.60;;;;;;4196135;28;20135;-41
2021/01/22 10:54:38;;;;;;;0.20;0.20;;;17.10;56.70;;;;;;4195498;28;20053;-41
2021/01/22 10:56:59;;;;;;;17.02;1.98;;;17.20;56.50;;;;;;4195585;28;20068;-40
2021/01/22 10:59:19;;;;;;;0.10;0.10;;;17.30;56.10;;;;;;4196091;28;20157;-41
2021/01/22 11:01:40;;;;;;;0.10;0.10;;;17.50;56.00;;;;;;4195294;28;20314;-42
2021/01/22 11:04:03;;;;;;;1.35;0.95;;;17.40;56.00;;;;;;4195818;28;20048;-41
2021/01/22 11:06:24;;;;;;;0.00;0.00;;;17.40;56.10;;;;;;4195965;28;20052;-41
2021/01/22 11:08:44;;;;;;;0.40;0.40;;;17.30;56.40;;;;;;4195345;28;20060;-41
2021/01/22 11:11:05;;;;;;;0.88;0.88;;;17.20;56.60;;;;;;4195082;28;20063;-41
2021/01/22 11:13:26;;;;;;;1.45;1.17;;;17.10;56.90;;;;;;4195839;28;20126;-41
2021/01/22 11:15:48;;;;;;;0.20;0.20;;;16.90;57.10;;;;;;4195656;28;20053;-41
2021/01/22 11:18:09;;;;;;;1.65;1.55;;;16.80;57.50;;;;;;4194744;28;20052;-40
2021/01/22 11:20:34;;;;;;;0.00;0.00;;;16.70;57.80;;;;;;4179298;28;20424;-40
2021/01/22 11:22:55;;;;;;;0.95;0.10;;;16.60;58.00;;;;;;4184908;28;20110;-41
2021/01/22 11:25:17;;;;;;;0.55;0.55;;;16.50;58.30;;;;;;4195813;28;20067;-41
2021/01/22 11:27:39;;;;;;;1.38;1.27;;;16.40;58.60;;;;;;4195372;28;20041;-46
2021/01/22 11:30:00;;;;;;;0.30;0.30;;;16.40;58.70;;;;;;4195214;28;20484;-41
2021/01/22 11:32:20;;;;;;;6.32;3.80;;;16.50;58.60;;;;;;4195607;28;20499;-41
2021/01/22 11:34:41;;;;;;;0.00;0.00;;;16.60;58.30;;;;;;4195510;28;20133;-41
2021/01/22 11:37:03;;;;;;;0.55;0.55;;;16.70;58.10;;;;;;4195981;28;20053;-41
2021/01/22 11:39:24;;;;;;;1.02;1.02;;;16.70;58.00;;;;;;4195295;28;20064;-41
2021/01/22 11:41:44;;;;;;;0.00;0.00;;;16.60;58.00;;;;;;4194325;28;20488;-41
2021/01/22 11:44:09;;;;;;;0.00;0.00;;;16.70;58.10;;;;;;4191463;28;20052;-41
2021/01/22 11:46:30;;;;;;;0.00;0.00;;;16.80;57.90;;;;;;4194513;28;20064;-41
2021/01/22 11:48:51;;;;;;;0.00;0.00;;;16.80;57.80;;;;;;4178754;28;20057;-41
2021/01/22 11:51:12;;;;;;;0.98;0.75;;;16.80;57.80;;;;;;4192569;28;20502;-41
2021/01/22 11:53:34;;;;;;;0.00;0.00;;;16.80;57.80;;;;;;4195503;28;20407;-40
2021/01/22 11:55:56;;;;;;;0.85;0.85;;;16.80;57.90;;;;;;4195311;28;20084;-41
2021/01/22 11:58:17;;;;;;;2.25;1.38;;;16.70;57.80;;;;;;4195573;28;20052;-41
2021/01/22 12:00:38;;;;;;;;;;;16.70;57.90;;;;;;4195755;28;20142;-42
2021/01/22 12:02:59;;;;;;;0.20;0.20;;;16.60;58.00;;;;;;4195067;28;19939;-42
2021/01/22 12:05:20;;;;;;;3.53;0.75;;;16.60;58.20;;;;;;4195928;28;20048;-41
2021/01/22 12:07:42;;;;;;;0.00;0.00;;;16.60;58.30;;;;;;4195276;28;20040;-42
2021/01/22 12:10:05;;;;;;;0.08;0.08;;;16.60;58.20;;;;;;4195121;28;20064;-40
2021/01/22 12:12:27;;;;;;;0.00;0.00;;;16.60;58.20;;;;;;4195504;28;20048;-40
2021/01/22 12:14:48;;;;;;;0.00;0.00;;;16.60;58.20;;;;;;4195233;28;20494;-41
2021/01/22 12:17:09;;;;;;;0.35;0.35;;;16.50;58.40;;;;;;4195598;28;20417;-41
2021/01/22 12:19:30;;;;;;;0.00;0.00;;;16.40;58.50;;;;;;4195892;28;20053;-40
2021/01/22 12:21:51;;;;;;;0.00;0.00;;;16.40;58.70;;;;;;4198200;28;20049;-41
2021/01/22 12:24:12;;;;;;;13.55;1.73;;;16.30;58.80;;;;;;4198097;28;20506;-41